sensor_id;sensor_type;location;lat;lon;timestamp;temperature;humidity
7502;DHT22;3792;47.740;7.606;2023-02-13T00:01:22;2.30;99.90
7502;DHT22;3792;47.740;7.606;2023-02-13T00:03:49;2.20;99.90
7502;DHT22;3792;47.740;7.606;2023-02-13T00:06:16;2.20;99.90
7502;DHT22;3792;47.740;7.606;2023-02-13T00:08:43;2.00;99.90
7502;DHT22;3792;47.740;7.606;2023-02-13T00:11:12;1.80;99.90
7502;DHT22;3792;47.740;7.606;2023-02-13T00:13:39;1.80;99.90
7502;DHT22;3792;47.740;7.606;2023-02-13T00:16:08;1.80;99.90
7502;DHT22;3792;47.740;7.606;2023-02-13T00:18:37;1.90;99.90
7502;DHT22;3792;47.740;7.606;2023-02-13T00:21:06;1.90;99.90
7502;DHT22;3792;47.740;7.606;2023-02-13T00:23:34;1.90;99.90
7502;DHT22;3792;47.740;7.606;2023-02-13T00:26:05;2.00;99.90
7502;DHT22;3792;47.740;7.606;2023-02-13T00:28:34;1.90;99.90
7502;DHT22;3792;47.740;7.606;2023-02-13T00:31:03;1.80;99.90
7502;DHT22;3792;47.740;7.606;2023-02-13T00:33:30;1.80;99.90
7502;DHT22;3792;47.740;7.606;2023-02-13T00:36:05;1.70;99.90
7502;DHT22;3792;47.740;7.606;2023-02-13T00:38:33;1.50;99.90
7502;DHT22;3792;47.740;7.606;2023-02-13T00:41:00;1.40;99.90
7502;DHT22;3792;47.740;7.606;2023-02-13T00:43:28;1.30;99.90
7502;DHT22;3792;47.740;7.606;2023-02-13T00:45:56;1.30;99.90
7502;DHT22;3792;47.740;7.606;2023-02-13T00:48:24;1.30;99.90
7502;DHT22;3792;47.740;7.606;2023-02-13T00:50:51;1.20;99.90
7502;DHT22;3792;47.740;7.606;2023-02-13T00:53:19;1.40;99.90
7502;DHT22;3792;47.740;7.606;2023-02-13T00:55:46;1.50;99.90
7502;DHT22;3792;47.740;7.606;2023-02-13T00:58:14;1.30;99.90
7502;DHT22;3792;47.740;7.606;2023-02-13T01:00:41;1.30;99.90
7502;DHT22;3792;47.740;7.606;2023-02-13T01:03:10;1.30;99.90
7502;DHT22;3792;47.740;7.606;2023-02-13T01:05:37;1.50;99.90
7502;DHT22;3792;47.740;7.606;2023-02-13T01:08:04;1.50;99.90
7502;DHT22;3792;47.740;7.606;2023-02-13T01:10:31;1.60;99.90
7502;DHT22;3792;47.740;7.606;2023-02-13T01:12:58;1.60;99.90
7502;DHT22;3792;47.740;7.606;2023-02-13T01:15:25;1.30;99.90
7502;DHT22;3792;47.740;7.606;2023-02-13T01:17:53;1.20;99.90
7502;DHT22;3792;47.740;7.606;2023-02-13T01:20:24;1.20;99.90
7502;DHT22;3792;47.740;7.606;2023-02-13T01:22:51;1.30;99.90
7502;DHT22;3792;47.740;7.606;2023-02-13T01:25:18;1.30;99.90
7502;DHT22;3792;47.740;7.606;2023-02-13T01:27:45;1.40;99.90
7502;DHT22;3792;47.740;7.606;2023-02-13T01:30:16;1.40;99.90
7502;DHT22;3792;47.740;7.606;2023-02-13T01:32:45;1.30;99.90
7502;DHT22;3792;47.740;7.606;2023-02-13T01:35:13;1.30;99.90
7502;DHT22;3792;47.740;7.606;2023-02-13T01:37:43;1.30;99.90
7502;DHT22;3792;47.740;7.606;2023-02-13T01:40:12;1.40;99.90
7502;DHT22;3792;47.740;7.606;2023-02-13T01:42:39;1.30;99.90
7502;DHT22;3792;47.740;7.606;2023-02-13T01:45:19;1.30;99.90
7502;DHT22;3792;47.740;7.606;2023-02-13T01:47:51;1.20;99.90
7502;DHT22;3792;47.740;7.606;2023-02-13T01:50:23;1.30;99.90
7502;DHT22;3792;47.740;7.606;2023-02-13T01:52:55;1.30;99.90
7502;DHT22;3792;47.740;7.606;2023-02-13T01:55:24;1.20;99.90
7502;DHT22;3792;47.740;7.606;2023-02-13T01:58:08;1.00;99.90
7502;DHT22;3792;47.740;7.606;2023-02-13T02:00:38;1.00;99.90
7502;DHT22;3792;47.740;7.606;2023-02-13T02:03:09;1.10;99.90
7502;DHT22;3792;47.740;7.606;2023-02-13T02:05:38;1.00;99.90
7502;DHT22;3792;47.740;7.606;2023-02-13T02:08:08;1.00;99.90
7502;DHT22;3792;47.740;7.606;2023-02-13T02:10:36;1.10;99.90
7502;DHT22;3792;47.740;7.606;2023-02-13T02:13:06;1.20;99.90
7502;DHT22;3792;47.740;7.606;2023-02-13T02:15:34;1.20;99.90
7502;DHT22;3792;47.740;7.606;2023-02-13T02:18:01;1.20;99.90
7502;DHT22;3792;47.740;7.606;2023-02-13T02:20:55;1.20;99.90
7502;DHT22;3792;47.740;7.606;2023-02-13T02:23:46;1.40;99.90
7502;DHT22;3792;47.740;7.606;2023-02-13T02:26:38;1.40;99.90
7502;DHT22;3792;47.740;7.606;2023-02-13T02:32:26;1.40;99.90
7502;DHT22;3792;47.740;7.606;2023-02-13T02:35:05;1.50;99.90
7502;DHT22;3792;47.740;7.606;2023-02-13T02:37:46;1.60;99.90
7502;DHT22;3792;47.740;7.606;2023-02-13T02:40:24;1.60;99.90
7502;DHT22;3792;47.740;7.606;2023-02-13T02:43:01;1.60;99.90
7502;DHT22;3792;47.740;7.606;2023-02-13T02:45:36;1.60;99.90
7502;DHT22;3792;47.740;7.606;2023-02-13T02:48:09;1.60;99.90
7502;DHT22;3792;47.740;7.606;2023-02-13T02:51:00;1.50;99.90
7502;DHT22;3792;47.740;7.606;2023-02-13T02:53:34;1.40;99.90
7502;DHT22;3792;47.740;7.606;2023-02-13T02:56:07;1.30;99.90
7502;DHT22;3792;47.740;7.606;2023-02-13T02:58:42;1.30;99.90
7502;DHT22;3792;47.740;7.606;2023-02-13T03:01:29;1.30;99.90
7502;DHT22;3792;47.740;7.606;2023-02-13T03:04:18;1.40;99.90
7502;DHT22;3792;47.740;7.606;2023-02-13T03:07:06;1.40;99.90
7502;DHT22;3792;47.740;7.606;2023-02-13T03:09:38;1.50;99.90
7502;DHT22;3792;47.740;7.606;2023-02-13T03:12:28;1.50;99.90
7502;DHT22;3792;47.740;7.606;2023-02-13T03:15:13;1.40;99.90
7502;DHT22;3792;47.740;7.606;2023-02-13T03:17:41;1.40;99.90
7502;DHT22;3792;47.740;7.606;2023-02-13T03:20:38;1.40;99.90
7502;DHT22;3792;47.740;7.606;2023-02-13T03:23:35;1.40;99.90
7502;DHT22;3792;47.740;7.606;2023-02-13T03:26:20;1.50;99.90
7502;DHT22;3792;47.740;7.606;2023-02-13T03:29:04;1.50;99.90
7502;DHT22;3792;47.740;7.606;2023-02-13T03:31:54;1.50;99.90
7502;DHT22;3792;47.740;7.606;2023-02-13T03:34:29;1.50;99.90
7502;DHT22;3792;47.740;7.606;2023-02-13T03:37:27;1.50;99.90
7502;DHT22;3792;47.740;7.606;2023-02-13T03:40:16;1.40;99.90
7502;DHT22;3792;47.740;7.606;2023-02-13T03:42:50;1.40;99.90
7502;DHT22;3792;47.740;7.606;2023-02-13T03:45:20;1.40;99.90
7502;DHT22;3792;47.740;7.606;2023-02-13T03:48:07;1.50;99.90
7502;DHT22;3792;47.740;7.606;2023-02-13T03:50:56;1.40;99.90
7502;DHT22;3792;47.740;7.606;2023-02-13T03:53:25;1.30;99.90
7502;DHT22;3792;47.740;7.606;2023-02-13T03:55:55;1.20;99.90
7502;DHT22;3792;47.740;7.606;2023-02-13T03:58:45;1.10;99.90
7502;DHT22;3792;47.740;7.606;2023-02-13T04:01:33;1.10;99.90
7502;DHT22;3792;47.740;7.606;2023-02-13T04:04:06;1.10;99.90
7502;DHT22;3792;47.740;7.606;2023-02-13T04:06:37;1.20;99.90
7502;DHT22;3792;47.740;7.606;2023-02-13T04:09:07;1.30;99.90
7502;DHT22;3792;47.740;7.606;2023-02-13T04:11:38;1.30;99.90
7502;DHT22;3792;47.740;7.606;2023-02-13T04:14:12;1.40;99.90
7502;DHT22;3792;47.740;7.606;2023-02-13T04:16:43;1.40;99.90
7502;DHT22;3792;47.740;7.606;2023-02-13T04:19:12;1.40;99.90
7502;DHT22;3792;47.740;7.606;2023-02-13T04:21:40;1.50;99.90
7502;DHT22;3792;47.740;7.606;2023-02-13T04:24:09;1.40;99.90
7502;DHT22;3792;47.740;7.606;2023-02-13T04:26:39;1.10;99.90
7502;DHT22;3792;47.740;7.606;2023-02-13T04:29:07;0.90;99.90
7502;DHT22;3792;47.740;7.606;2023-02-13T04:31:34;0.90;99.90
7502;DHT22;3792;47.740;7.606;2023-02-13T04:34:01;1.00;99.90
7502;DHT22;3792;47.740;7.606;2023-02-13T04:36:29;1.00;99.90
7502;DHT22;3792;47.740;7.606;2023-02-13T04:38:56;1.00;99.90
7502;DHT22;3792;47.740;7.606;2023-02-13T04:41:24;1.10;99.90
7502;DHT22;3792;47.740;7.606;2023-02-13T04:43:51;1.10;99.90
7502;DHT22;3792;47.740;7.606;2023-02-13T04:46:18;1.20;99.90
7502;DHT22;3792;47.740;7.606;2023-02-13T04:48:45;1.30;99.90
7502;DHT22;3792;47.740;7.606;2023-02-13T04:51:13;1.20;99.90
7502;DHT22;3792;47.740;7.606;2023-02-13T04:53:40;1.00;99.90
7502;DHT22;3792;47.740;7.606;2023-02-13T04:56:07;1.00;99.90
7502;DHT22;3792;47.740;7.606;2023-02-13T04:58:36;1.00;99.90
7502;DHT22;3792;47.740;7.606;2023-02-13T05:01:10;1.00;99.90
7502;DHT22;3792;47.740;7.606;2023-02-13T05:03:37;1.00;99.90
7502;DHT22;3792;47.740;7.606;2023-02-13T05:06:05;0.90;99.90
7502;DHT22;3792;47.740;7.606;2023-02-13T05:08:32;0.90;99.90
7502;DHT22;3792;47.740;7.606;2023-02-13T05:10:59;0.90;99.90
7502;DHT22;3792;47.740;7.606;2023-02-13T05:13:26;0.80;99.90
7502;DHT22;3792;47.740;7.606;2023-02-13T05:15:54;0.70;99.90
7502;DHT22;3792;47.740;7.606;2023-02-13T05:18:21;0.60;99.90
7502;DHT22;3792;47.740;7.606;2023-02-13T05:20:48;0.60;99.90
7502;DHT22;3792;47.740;7.606;2023-02-13T05:23:36;0.60;99.90
7502;DHT22;3792;47.740;7.606;2023-02-13T05:26:02;0.70;99.90
7502;DHT22;3792;47.740;7.606;2023-02-13T05:28:29;0.80;99.90
7502;DHT22;3792;47.740;7.606;2023-02-13T05:31:15;0.80;99.90
7502;DHT22;3792;47.740;7.606;2023-02-13T05:33:42;0.90;99.90
7502;DHT22;3792;47.740;7.606;2023-02-13T05:36:09;0.90;99.90
7502;DHT22;3792;47.740;7.606;2023-02-13T05:38:36;0.80;99.90
7502;DHT22;3792;47.740;7.606;2023-02-13T05:41:03;0.80;99.90
7502;DHT22;3792;47.740;7.606;2023-02-13T05:43:30;0.70;99.90
7502;DHT22;3792;47.740;7.606;2023-02-13T05:46:02;0.50;99.90
7502;DHT22;3792;47.740;7.606;2023-02-13T05:48:30;0.50;99.90
7502;DHT22;3792;47.740;7.606;2023-02-13T05:50:58;0.60;99.90
7502;DHT22;3792;47.740;7.606;2023-02-13T05:53:25;0.60;99.90
7502;DHT22;3792;47.740;7.606;2023-02-13T05:55:52;0.60;99.90
7502;DHT22;3792;47.740;7.606;2023-02-13T05:58:19;0.60;99.90
7502;DHT22;3792;47.740;7.606;2023-02-13T06:00:47;0.60;99.90
7502;DHT22;3792;47.740;7.606;2023-02-13T06:03:14;0.60;99.90
7502;DHT22;3792;47.740;7.606;2023-02-13T06:05:42;0.60;99.90
7502;DHT22;3792;47.740;7.606;2023-02-13T06:08:09;0.60;99.90
7502;DHT22;3792;47.740;7.606;2023-02-13T06:10:36;0.70;99.90
7502;DHT22;3792;47.740;7.606;2023-02-13T06:13:04;0.80;99.90
7502;DHT22;3792;47.740;7.606;2023-02-13T06:15:31;0.90;99.90
7502;DHT22;3792;47.740;7.606;2023-02-13T06:17:58;0.90;99.90
7502;DHT22;3792;47.740;7.606;2023-02-13T06:20:26;1.00;99.90
7502;DHT22;3792;47.740;7.606;2023-02-13T06:22:54;0.90;99.90
7502;DHT22;3792;47.740;7.606;2023-02-13T06:25:21;0.90;99.90
7502;DHT22;3792;47.740;7.606;2023-02-13T06:27:48;0.90;99.90
7502;DHT22;3792;47.740;7.606;2023-02-13T06:30:16;0.90;99.90
7502;DHT22;3792;47.740;7.606;2023-02-13T06:32:45;0.90;99.90
7502;DHT22;3792;47.740;7.606;2023-02-13T06:35:13;1.00;99.90
7502;DHT22;3792;47.740;7.606;2023-02-13T06:37:41;0.90;99.90
7502;DHT22;3792;47.740;7.606;2023-02-13T06:40:13;0.80;99.90
7502;DHT22;3792;47.740;7.606;2023-02-13T06:42:43;0.80;99.90
7502;DHT22;3792;47.740;7.606;2023-02-13T06:45:10;0.80;99.90
7502;DHT22;3792;47.740;7.606;2023-02-13T06:47:40;0.70;99.90
7502;DHT22;3792;47.740;7.606;2023-02-13T06:50:08;0.70;99.90
7502;DHT22;3792;47.740;7.606;2023-02-13T06:52:36;0.60;99.90
7502;DHT22;3792;47.740;7.606;2023-02-13T06:55:03;0.50;99.90
7502;DHT22;3792;47.740;7.606;2023-02-13T06:57:32;0.40;99.90
7502;DHT22;3792;47.740;7.606;2023-02-13T06:59:59;0.40;99.90
7502;DHT22;3792;47.740;7.606;2023-02-13T07:02:29;0.50;99.90
7502;DHT22;3792;47.740;7.606;2023-02-13T07:04:56;0.40;99.90
7502;DHT22;3792;47.740;7.606;2023-02-13T07:07:24;0.50;99.90
7502;DHT22;3792;47.740;7.606;2023-02-13T07:09:51;0.60;99.90
7502;DHT22;3792;47.740;7.606;2023-02-13T07:12:18;0.70;99.90
7502;DHT22;3792;47.740;7.606;2023-02-13T07:14:46;0.60;99.90
7502;DHT22;3792;47.740;7.606;2023-02-13T07:17:13;0.60;99.90
7502;DHT22;3792;47.740;7.606;2023-02-13T07:19:40;0.50;99.90
7502;DHT22;3792;47.740;7.606;2023-02-13T07:22:07;0.40;99.90
7502;DHT22;3792;47.740;7.606;2023-02-13T07:24:34;0.40;99.90
7502;DHT22;3792;47.740;7.606;2023-02-13T07:27:03;0.40;99.90
7502;DHT22;3792;47.740;7.606;2023-02-13T07:29:30;0.30;99.90
7502;DHT22;3792;47.740;7.606;2023-02-13T07:31:58;0.30;99.90
7502;DHT22;3792;47.740;7.606;2023-02-13T07:34:25;0.30;99.90
7502;DHT22;3792;47.740;7.606;2023-02-13T07:36:52;0.40;99.90
7502;DHT22;3792;47.740;7.606;2023-02-13T07:39:19;0.70;99.90
7502;DHT22;3792;47.740;7.606;2023-02-13T07:41:46;1.00;99.90
7502;DHT22;3792;47.740;7.606;2023-02-13T07:44:13;1.30;99.90
7502;DHT22;3792;47.740;7.606;2023-02-13T07:46:40;1.50;99.90
7502;DHT22;3792;47.740;7.606;2023-02-13T07:49:09;1.80;99.90
7502;DHT22;3792;47.740;7.606;2023-02-13T07:51:36;1.80;99.90
7502;DHT22;3792;47.740;7.606;2023-02-13T07:54:03;1.90;99.90
7502;DHT22;3792;47.740;7.606;2023-02-13T07:56:30;2.00;99.90
7502;DHT22;3792;47.740;7.606;2023-02-13T07:58:57;2.00;99.90
7502;DHT22;3792;47.740;7.606;2023-02-13T08:01:24;1.90;99.90
7502;DHT22;3792;47.740;7.606;2023-02-13T08:03:51;2.10;99.90
7502;DHT22;3792;47.740;7.606;2023-02-13T08:06:20;2.30;99.90
7502;DHT22;3792;47.740;7.606;2023-02-13T08:08:47;2.60;99.90
7502;DHT22;3792;47.740;7.606;2023-02-13T08:11:35;2.90;99.90
7502;DHT22;3792;47.740;7.606;2023-02-13T08:14:19;3.10;99.90
7502;DHT22;3792;47.740;7.606;2023-02-13T08:16:46;3.40;99.90
7502;DHT22;3792;47.740;7.606;2023-02-13T08:19:14;3.60;99.90
7502;DHT22;3792;47.740;7.606;2023-02-13T08:21:42;3.80;99.90
7502;DHT22;3792;47.740;7.606;2023-02-13T08:24:11;3.90;99.90
7502;DHT22;3792;47.740;7.606;2023-02-13T08:26:38;3.90;99.90
7502;DHT22;3792;47.740;7.606;2023-02-13T08:29:06;4.00;99.90
7502;DHT22;3792;47.740;7.606;2023-02-13T08:31:33;3.90;99.90
7502;DHT22;3792;47.740;7.606;2023-02-13T08:34:00;3.90;99.90
7502;DHT22;3792;47.740;7.606;2023-02-13T08:36:27;3.90;99.90
7502;DHT22;3792;47.740;7.606;2023-02-13T08:38:56;3.90;99.90
7502;DHT22;3792;47.740;7.606;2023-02-13T08:41:23;4.30;99.90
7502;DHT22;3792;47.740;7.606;2023-02-13T08:43:50;4.40;99.90
7502;DHT22;3792;47.740;7.606;2023-02-13T08:46:17;4.40;99.90
7502;DHT22;3792;47.740;7.606;2023-02-13T08:48:44;4.40;99.90
7502;DHT22;3792;47.740;7.606;2023-02-13T08:51:12;4.40;99.90
7502;DHT22;3792;47.740;7.606;2023-02-13T08:53:39;4.30;99.90
7502;DHT22;3792;47.740;7.606;2023-02-13T08:56:09;4.20;99.90
7502;DHT22;3792;47.740;7.606;2023-02-13T08:58:36;4.20;99.90
7502;DHT22;3792;47.740;7.606;2023-02-13T09:01:05;4.20;99.90
7502;DHT22;3792;47.740;7.606;2023-02-13T09:03:32;4.20;99.90
7502;DHT22;3792;47.740;7.606;2023-02-13T09:05:59;4.20;99.90
7502;DHT22;3792;47.740;7.606;2023-02-13T09:08:27;4.30;99.90
7502;DHT22;3792;47.740;7.606;2023-02-13T09:10:58;4.30;99.90
7502;DHT22;3792;47.740;7.606;2023-02-13T09:13:27;4.30;99.90
7502;DHT22;3792;47.740;7.606;2023-02-13T09:15:57;4.30;99.90
7502;DHT22;3792;47.740;7.606;2023-02-13T09:18:25;4.30;99.90
7502;DHT22;3792;47.740;7.606;2023-02-13T09:20:57;4.30;99.90
7502;DHT22;3792;47.740;7.606;2023-02-13T09:23:25;4.20;99.90
7502;DHT22;3792;47.740;7.606;2023-02-13T09:25:52;4.20;99.90
7502;DHT22;3792;47.740;7.606;2023-02-13T09:28:19;4.20;99.90
7502;DHT22;3792;47.740;7.606;2023-02-13T09:30:47;4.30;99.90
7502;DHT22;3792;47.740;7.606;2023-02-13T09:33:15;4.40;99.90
7502;DHT22;3792;47.740;7.606;2023-02-13T09:35:42;4.40;99.90
7502;DHT22;3792;47.740;7.606;2023-02-13T09:38:10;4.50;99.90
7502;DHT22;3792;47.740;7.606;2023-02-13T09:40:42;4.60;99.90
7502;DHT22;3792;47.740;7.606;2023-02-13T09:43:14;4.70;99.90
7502;DHT22;3792;47.740;7.606;2023-02-13T09:45:44;4.90;99.90
7502;DHT22;3792;47.740;7.606;2023-02-13T09:48:18;5.00;99.90
7502;DHT22;3792;47.740;7.606;2023-02-13T09:50:47;5.10;99.90
7502;DHT22;3792;47.740;7.606;2023-02-13T09:53:19;5.30;99.90
7502;DHT22;3792;47.740;7.606;2023-02-13T09:55:54;5.40;99.90
7502;DHT22;3792;47.740;7.606;2023-02-13T09:58:32;5.50;99.90
7502;DHT22;3792;47.740;7.606;2023-02-13T10:01:04;5.60;99.90
7502;DHT22;3792;47.740;7.606;2023-02-13T10:03:36;5.80;99.90
7502;DHT22;3792;47.740;7.606;2023-02-13T10:06:11;5.90;99.90
7502;DHT22;3792;47.740;7.606;2023-02-13T10:08:54;6.00;99.90
7502;DHT22;3792;47.740;7.606;2023-02-13T10:11:39;6.10;99.90
7502;DHT22;3792;47.740;7.606;2023-02-13T10:14:14;6.30;99.90
7502;DHT22;3792;47.740;7.606;2023-02-13T10:16:44;6.50;99.90
7502;DHT22;3792;47.740;7.606;2023-02-13T10:19:22;6.70;99.90
7502;DHT22;3792;47.740;7.606;2023-02-13T10:21:54;7.00;99.90
7502;DHT22;3792;47.740;7.606;2023-02-13T10:24:30;7.20;99.90
7502;DHT22;3792;47.740;7.606;2023-02-13T10:27:03;7.50;99.90
7502;DHT22;3792;47.740;7.606;2023-02-13T10:29:38;7.70;99.90
7502;DHT22;3792;47.740;7.606;2023-02-13T10:32:29;8.10;99.90
7502;DHT22;3792;47.740;7.606;2023-02-13T10:35:03;8.60;99.90
7502;DHT22;3792;47.740;7.606;2023-02-13T10:37:31;9.00;99.90
7502;DHT22;3792;47.740;7.606;2023-02-13T10:39:58;9.20;99.90
7502;DHT22;3792;47.740;7.606;2023-02-13T10:42:30;9.50;99.90
7502;DHT22;3792;47.740;7.606;2023-02-13T10:45:13;9.70;99.90
7502;DHT22;3792;47.740;7.606;2023-02-13T10:47:55;10.00;99.90
7502;DHT22;3792;47.740;7.606;2023-02-13T10:50:29;10.30;99.90
7502;DHT22;3792;47.740;7.606;2023-02-13T10:53:10;10.50;99.90
7502;DHT22;3792;47.740;7.606;2023-02-13T10:55:55;10.80;99.90
7502;DHT22;3792;47.740;7.606;2023-02-13T10:58:30;11.10;99.90
7502;DHT22;3792;47.740;7.606;2023-02-13T11:01:05;11.00;99.90
7502;DHT22;3792;47.740;7.606;2023-02-13T11:03:32;11.30;99.90
7502;DHT22;3792;47.740;7.606;2023-02-13T11:06:05;11.40;99.90
7502;DHT22;3792;47.740;7.606;2023-02-13T11:08:34;11.50;99.90
7502;DHT22;3792;47.740;7.606;2023-02-13T11:11:27;11.30;99.90
7502;DHT22;3792;47.740;7.606;2023-02-13T11:14:08;11.40;99.90
7502;DHT22;3792;47.740;7.606;2023-02-13T11:16:40;11.30;99.90
7502;DHT22;3792;47.740;7.606;2023-02-13T11:19:16;11.50;99.90
7502;DHT22;3792;47.740;7.606;2023-02-13T11:21:46;11.40;99.90
7502;DHT22;3792;47.740;7.606;2023-02-13T11:24:22;11.50;99.90
7502;DHT22;3792;47.740;7.606;2023-02-13T11:26:52;11.50;99.90
7502;DHT22;3792;47.740;7.606;2023-02-13T11:29:23;11.80;99.90
7502;DHT22;3792;47.740;7.606;2023-02-13T11:32:03;11.90;99.90
7502;DHT22;3792;47.740;7.606;2023-02-13T11:34:32;12.10;99.90
7502;DHT22;3792;47.740;7.606;2023-02-13T11:37:21;12.20;99.90
7502;DHT22;3792;47.740;7.606;2023-02-13T11:39:50;12.40;99.90
7502;DHT22;3792;47.740;7.606;2023-02-13T11:42:28;12.50;99.90
7502;DHT22;3792;47.740;7.606;2023-02-13T11:44:58;12.60;99.90
7502;DHT22;3792;47.740;7.606;2023-02-13T11:47:34;12.80;99.90
7502;DHT22;3792;47.740;7.606;2023-02-13T11:50:02;12.70;99.90
7502;DHT22;3792;47.740;7.606;2023-02-13T11:52:32;12.90;99.90
7502;DHT22;3792;47.740;7.606;2023-02-13T11:55:02;13.00;99.90
7502;DHT22;3792;47.740;7.606;2023-02-13T11:57:32;13.10;99.90
7502;DHT22;3792;47.740;7.606;2023-02-13T12:00:01;13.30;99.90
7502;DHT22;3792;47.740;7.606;2023-02-13T12:02:48;13.40;99.90
7502;DHT22;3792;47.740;7.606;2023-02-13T12:05:18;13.60;99.90
7502;DHT22;3792;47.740;7.606;2023-02-13T12:07:47;13.70;99.90
7502;DHT22;3792;47.740;7.606;2023-02-13T12:10:21;13.70;99.90
7502;DHT22;3792;47.740;7.606;2023-02-13T12:12:53;13.70;99.90
7502;DHT22;3792;47.740;7.606;2023-02-13T12:15:23;13.60;99.90
7502;DHT22;3792;47.740;7.606;2023-02-13T12:18:01;13.70;99.90
7502;DHT22;3792;47.740;7.606;2023-02-13T12:20:39;14.00;99.90
7502;DHT22;3792;47.740;7.606;2023-02-13T12:23:16;14.30;99.90
7502;DHT22;3792;47.740;7.606;2023-02-13T12:29:00;14.60;99.90
7502;DHT22;3792;47.740;7.606;2023-02-13T12:31:47;14.80;99.90
7502;DHT22;3792;47.740;7.606;2023-02-13T12:34:32;14.90;99.90
7502;DHT22;3792;47.740;7.606;2023-02-13T12:37:15;15.00;99.90
7502;DHT22;3792;47.740;7.606;2023-02-13T12:39:57;15.10;99.90
7502;DHT22;3792;47.740;7.606;2023-02-13T12:42:36;15.20;99.90
7502;DHT22;3792;47.740;7.606;2023-02-13T12:45:20;15.20;99.90
7502;DHT22;3792;47.740;7.606;2023-02-13T12:48:03;15.30;99.90
7502;DHT22;3792;47.740;7.606;2023-02-13T12:50:40;15.50;99.90
7502;DHT22;3792;47.740;7.606;2023-02-13T12:53:19;15.60;99.70
7502;DHT22;3792;47.740;7.606;2023-02-13T12:56:03;15.40;99.80
7502;DHT22;3792;47.740;7.606;2023-02-13T12:59:00;15.60;99.60
7502;DHT22;3792;47.740;7.606;2023-02-13T13:01:44;15.80;99.30
7502;DHT22;3792;47.740;7.606;2023-02-13T13:04:19;16.00;98.80
7502;DHT22;3792;47.740;7.606;2023-02-13T13:07:07;16.20;98.80
7502;DHT22;3792;47.740;7.606;2023-02-13T13:09:59;16.40;98.60
7502;DHT22;3792;47.740;7.606;2023-02-13T13:12:40;16.70;98.10
7502;DHT22;3792;47.740;7.606;2023-02-13T13:15:13;16.50;97.80
7502;DHT22;3792;47.740;7.606;2023-02-13T13:17:54;16.40;97.80
7502;DHT22;3792;47.740;7.606;2023-02-13T13:23:39;16.30;98.10
7502;DHT22;3792;47.740;7.606;2023-02-13T13:26:17;16.40;97.50
7502;DHT22;3792;47.740;7.606;2023-02-13T13:28:52;16.40;97.70
7502;DHT22;3792;47.740;7.606;2023-02-13T13:31:20;16.30;97.60
7502;DHT22;3792;47.740;7.606;2023-02-13T13:33:51;16.10;98.10
7502;DHT22;3792;47.740;7.606;2023-02-13T13:36:37;16.00;98.30
7502;DHT22;3792;47.740;7.606;2023-02-13T13:39:13;15.90;98.40
7502;DHT22;3792;47.740;7.606;2023-02-13T13:41:49;15.90;98.50
7502;DHT22;3792;47.740;7.606;2023-02-13T13:44:49;16.00;98.30
7502;DHT22;3792;47.740;7.606;2023-02-13T13:47:26;16.10;98.10
7502;DHT22;3792;47.740;7.606;2023-02-13T13:50:00;16.10;98.30
7502;DHT22;3792;47.740;7.606;2023-02-13T13:52:31;16.30;97.90
7502;DHT22;3792;47.740;7.606;2023-02-13T13:55:00;16.30;97.80
7502;DHT22;3792;47.740;7.606;2023-02-13T13:57:58;16.40;98.00
7502;DHT22;3792;47.740;7.606;2023-02-13T14:00:29;16.40;97.70
7502;DHT22;3792;47.740;7.606;2023-02-13T14:03:23;16.60;97.60
7502;DHT22;3792;47.740;7.606;2023-02-13T14:06:00;16.80;97.50
7502;DHT22;3792;47.740;7.606;2023-02-13T14:08:53;16.60;97.20
7502;DHT22;3792;47.740;7.606;2023-02-13T14:11:35;16.50;97.40
7502;DHT22;3792;47.740;7.606;2023-02-13T14:20:37;17.00;97.30
7502;DHT22;3792;47.740;7.606;2023-02-13T14:23:32;17.00;96.70
7502;DHT22;3792;47.740;7.606;2023-02-13T14:26:12;17.10;96.80
7502;DHT22;3792;47.740;7.606;2023-02-13T14:28:55;17.30;96.70
7502;DHT22;3792;47.740;7.606;2023-02-13T14:31:26;17.20;96.40
7502;DHT22;3792;47.740;7.606;2023-02-13T14:33:56;17.10;96.60
7502;DHT22;3792;47.740;7.606;2023-02-13T14:36:29;17.30;96.20
7502;DHT22;3792;47.740;7.606;2023-02-13T14:39:00;17.50;95.90
7502;DHT22;3792;47.740;7.606;2023-02-13T14:41:43;17.50;95.90
7502;DHT22;3792;47.740;7.606;2023-02-13T14:44:17;17.60;95.60
7502;DHT22;3792;47.740;7.606;2023-02-13T14:46:46;17.50;95.40
7502;DHT22;3792;47.740;7.606;2023-02-13T14:49:18;17.30;95.60
7502;DHT22;3792;47.740;7.606;2023-02-13T14:51:49;17.10;95.60
7502;DHT22;3792;47.740;7.606;2023-02-13T14:54:24;17.10;95.90
7502;DHT22;3792;47.740;7.606;2023-02-13T14:57:02;17.20;95.40
7502;DHT22;3792;47.740;7.606;2023-02-13T14:59:34;17.30;95.30
7502;DHT22;3792;47.740;7.606;2023-02-13T15:02:12;17.30;95.30
7502;DHT22;3792;47.740;7.606;2023-02-13T15:04:45;17.30;94.90
7502;DHT22;3792;47.740;7.606;2023-02-13T15:07:18;17.00;94.90
7502;DHT22;3792;47.740;7.606;2023-02-13T15:09:50;16.30;95.20
7502;DHT22;3792;47.740;7.606;2023-02-13T15:12:29;16.00;95.80
7502;DHT22;3792;47.740;7.606;2023-02-13T15:14:57;15.30;96.70
7502;DHT22;3792;47.740;7.606;2023-02-13T15:17:28;15.10;97.00
7502;DHT22;3792;47.740;7.606;2023-02-13T15:20:02;15.20;97.20
7502;DHT22;3792;47.740;7.606;2023-02-13T15:22:34;15.10;97.10
7502;DHT22;3792;47.740;7.606;2023-02-13T15:25:03;15.10;97.00
7502;DHT22;3792;47.740;7.606;2023-02-13T15:27:35;14.90;97.20
7502;DHT22;3792;47.740;7.606;2023-02-13T15:30:18;14.60;97.70
7502;DHT22;3792;47.740;7.606;2023-02-13T15:33:00;14.80;97.60
7502;DHT22;3792;47.740;7.606;2023-02-13T15:36:00;14.60;97.70
7502;DHT22;3792;47.740;7.606;2023-02-13T15:38:31;14.50;98.10
7502;DHT22;3792;47.740;7.606;2023-02-13T15:41:03;14.70;97.90
7502;DHT22;3792;47.740;7.606;2023-02-13T15:43:32;14.90;97.70
7502;DHT22;3792;47.740;7.606;2023-02-13T15:46:02;15.10;97.50
7502;DHT22;3792;47.740;7.606;2023-02-13T15:48:32;15.30;97.20
7502;DHT22;3792;47.740;7.606;2023-02-13T15:51:00;15.30;96.90
7502;DHT22;3792;47.740;7.606;2023-02-13T15:53:29;15.20;96.80
7502;DHT22;3792;47.740;7.606;2023-02-13T15:55:58;15.10;97.00
7502;DHT22;3792;47.740;7.606;2023-02-13T15:58:29;15.10;96.80
7502;DHT22;3792;47.740;7.606;2023-02-13T16:01:01;15.00;96.80
7502;DHT22;3792;47.740;7.606;2023-02-13T16:03:31;14.80;97.00
7502;DHT22;3792;47.740;7.606;2023-02-13T16:05:59;14.50;97.00
7502;DHT22;3792;47.740;7.606;2023-02-13T16:08:33;14.40;97.30
7502;DHT22;3792;47.740;7.606;2023-02-13T16:11:22;14.20;97.20
7502;DHT22;3792;47.740;7.606;2023-02-13T16:13:59;14.00;97.50
7502;DHT22;3792;47.740;7.606;2023-02-13T16:16:28;13.80;97.70
7502;DHT22;3792;47.740;7.606;2023-02-13T16:18:57;13.30;97.90
7502;DHT22;3792;47.740;7.606;2023-02-13T16:21:26;13.00;98.40
7502;DHT22;3792;47.740;7.606;2023-02-13T16:23:59;12.60;98.80
7502;DHT22;3792;47.740;7.606;2023-02-13T16:26:27;12.10;98.90
7502;DHT22;3792;47.740;7.606;2023-02-13T16:28:56;11.60;99.90
7502;DHT22;3792;47.740;7.606;2023-02-13T16:31:23;11.30;99.90
7502;DHT22;3792;47.740;7.606;2023-02-13T16:33:50;10.70;99.90
7502;DHT22;3792;47.740;7.606;2023-02-13T16:36:25;10.20;99.90
7502;DHT22;3792;47.740;7.606;2023-02-13T16:38:53;9.70;99.90
7502;DHT22;3792;47.740;7.606;2023-02-13T16:41:31;9.10;99.90
7502;DHT22;3792;47.740;7.606;2023-02-13T16:43:59;8.50;99.90
7502;DHT22;3792;47.740;7.606;2023-02-13T16:46:34;8.20;99.90
7502;DHT22;3792;47.740;7.606;2023-02-13T16:49:17;7.90;99.90
7502;DHT22;3792;47.740;7.606;2023-02-13T16:51:49;7.70;99.90
7502;DHT22;3792;47.740;7.606;2023-02-13T16:54:21;7.50;99.90
7502;DHT22;3792;47.740;7.606;2023-02-13T16:56:58;7.40;99.90
7502;DHT22;3792;47.740;7.606;2023-02-13T16:59:38;7.30;99.90
7502;DHT22;3792;47.740;7.606;2023-02-13T17:02:20;7.30;99.90
7502;DHT22;3792;47.740;7.606;2023-02-13T17:04:50;7.20;99.90